Terminal Aerodrome Forecast
Issued by NWS Caribou, ME

Home | Current Version | Previous Version | Text Only | Print | Product List | Glossary On
Versions: 1 2 3 4 5 6 7 8 9 10 11 12 13 14 15
262
FTUS41 KCAR 270520
TAFBGR
TAF
KBGR 270520Z 2706/2806 18005KT P6SM BKN250
     FM271000 VRB03KT 5SM -RA BR OVC025
     FM271200 VRB03KT 3SM -RA BR OVC010
     FM271400 VRB03KT 5SM -RA BR OVC006
     FM271800 04006KT 5SM BR VCSH OVC008=

USA.gov is the U.S. government's official web portal to all federal, state and local government web resources and services.